createdAt,value
2022-11-12T00:02:27.397Z,34.70
2022-11-12T00:05:32.586Z,36.95
2022-11-12T00:08:40.174Z,37.00
2022-11-12T00:11:44.309Z,39.40
2022-11-12T00:14:48.738Z,39.35
2022-11-12T00:17:56.247Z,40.08
2022-11-12T00:21:00.608Z,43.47
2022-11-12T00:24:05.070Z,42.65
2022-11-12T00:27:09.355Z,43.67
2022-11-12T00:30:14.229Z,41.72
2022-11-12T00:33:18.519Z,43.72
2022-11-12T00:36:22.858Z,43.88
2022-11-12T00:39:27.726Z,43.83
2022-11-12T00:42:31.879Z,42.57
2022-11-12T00:45:36.374Z,43.28
2022-11-12T00:48:41.034Z,31.92
2022-11-12T00:51:45.493Z,43.25
2022-11-12T00:54:49.919Z,48.47
2022-11-12T00:57:54.479Z,44.33
2022-11-12T01:01:04.178Z,42.85
2022-11-12T01:04:08.665Z,45.22
2022-11-12T01:07:13.023Z,43.25
2022-11-12T01:10:17.189Z,42.58
2022-11-12T01:13:21.626Z,41.88
2022-11-12T01:16:31.653Z,42.45
2022-11-12T01:19:36.115Z,39.55
2022-11-12T01:22:40.299Z,38.55
2022-11-12T01:25:44.677Z,38.22
2022-11-12T01:28:49.295Z,37.92
2022-11-12T01:31:53.398Z,37.60
2022-11-12T01:34:57.855Z,34.47
2022-11-12T01:38:02.053Z,37.33
2022-11-12T01:41:08.044Z,36.60
2022-11-12T01:44:17.502Z,36.38
2022-11-12T01:47:26.582Z,35.72
2022-11-12T01:50:36.556Z,36.88
2022-11-12T01:53:45.799Z,35.50
2022-11-12T01:56:51.513Z,32.58
2022-11-12T02:00:00.956Z,32.80
2022-11-12T02:03:09.959Z,31.38
2022-11-12T02:06:20.084Z,30.45
2022-11-12T02:09:25.263Z,29.92
2022-11-12T02:12:48.020Z,32.72
2022-11-12T02:15:52.889Z,30.55
2022-11-12T02:18:59.806Z,32.50
2022-11-12T02:22:03.942Z,29.63
2022-11-12T02:25:12.655Z,32.35
2022-11-12T02:28:18.002Z,29.80
2022-11-12T02:31:22.226Z,30.30
2022-11-12T02:34:26.398Z,30.48
2022-11-12T02:37:33.444Z,31.00
2022-11-12T02:40:37.700Z,30.80
2022-11-12T02:43:46.258Z,30.40
2022-11-12T02:46:50.699Z,29.70
2022-11-12T02:49:58.697Z,28.75
2022-11-12T02:53:04.321Z,31.00
2022-11-12T02:56:08.600Z,30.38
2022-11-12T02:59:13.696Z,32.20
2022-11-12T03:02:18.023Z,32.17
2022-11-12T03:05:22.542Z,35.00
2022-11-12T03:08:28.264Z,34.03
2022-11-12T03:11:32.631Z,33.72
2022-11-12T03:14:36.850Z,35.05
2022-11-12T03:17:41.158Z,33.97
2022-11-12T03:20:45.629Z,33.33
2022-11-12T03:23:50.185Z,36.13
2022-11-12T03:26:54.906Z,34.85
2022-11-12T03:29:58.991Z,36.65
2022-11-12T03:33:04.267Z,32.97
2022-11-12T03:36:08.660Z,34.88
2022-11-12T03:39:12.823Z,37.53
2022-11-12T03:42:17.128Z,34.88
2022-11-12T03:45:26.996Z,36.80
2022-11-12T03:48:31.490Z,33.55
2022-11-12T03:51:36.532Z,36.00
2022-11-12T03:54:40.831Z,34.70
2022-11-12T03:57:47.331Z,31.88
2022-11-12T04:00:51.723Z,34.72
2022-11-12T04:03:55.882Z,36.33
2022-11-12T04:07:18.573Z,38.75
2022-11-12T04:10:23.203Z,36.55
2022-11-12T04:13:27.909Z,37.17
2022-11-12T04:16:51.522Z,40.17
2022-11-12T04:20:14.144Z,40.00
2022-11-12T04:23:18.384Z,37.88
2022-11-12T04:26:25.460Z,36.22
2022-11-12T04:29:48.356Z,37.90
2022-11-12T04:32:54.880Z,36.85
2022-11-12T04:36:01.278Z,39.35
2022-11-12T04:39:05.391Z,40.92
2022-11-12T04:42:29.258Z,39.30
2022-11-12T04:45:34.171Z,39.53
2022-11-12T04:48:38.259Z,41.47
2022-11-12T04:52:01.337Z,44.38
2022-11-12T04:55:06.207Z,42.53
2022-11-12T04:58:10.736Z,46.43
2022-11-12T05:01:17.587Z,35.72
2022-11-12T05:04:27.588Z,42.60
2022-11-12T05:07:33.115Z,40.10
2022-11-12T05:10:40.290Z,40.40
2022-11-12T05:13:44.274Z,42.90
2022-11-12T05:16:48.602Z,38.10
2022-11-12T05:19:52.987Z,43.17
2022-11-12T05:23:06.644Z,38.97
2022-11-12T05:26:11.605Z,37.03
2022-11-12T05:29:16.383Z,40.28
2022-11-12T05:32:20.492Z,36.63
2022-11-12T05:35:24.657Z,35.90
2022-11-12T05:38:29.058Z,37.50
2022-11-12T05:41:58.068Z,41.73
2022-11-12T05:44:57.590Z,37.42
2022-11-12T05:48:01.977Z,39.28
2022-11-12T05:51:12.943Z,38.88
2022-11-12T05:54:18.524Z,40.13
2022-11-12T05:57:25.071Z,41.67
2022-11-12T06:00:29.298Z,40.10
2022-11-12T06:03:34.976Z,41.45
2022-11-12T06:06:40.503Z,44.83
2022-11-12T06:09:44.873Z,45.05
2022-11-12T06:12:48.929Z,45.63
2022-11-12T06:15:54.697Z,46.00
2022-11-12T06:18:59.153Z,46.78
2022-11-12T06:22:03.222Z,45.13
2022-11-12T06:25:08.050Z,45.88
2022-11-12T06:28:12.690Z,51.87
2022-11-12T06:31:17.651Z,50.78
2022-11-12T06:34:21.490Z,50.97
2022-11-12T06:37:25.954Z,51.75
2022-11-12T06:40:30.207Z,52.22
2022-11-12T06:43:35.701Z,52.47
2022-11-12T06:46:40.151Z,53.03
2022-11-12T06:49:44.494Z,51.40
2022-11-12T06:52:48.883Z,53.67
2022-11-12T06:55:53.461Z,54.15
2022-11-12T06:58:57.700Z,55.00
2022-11-12T07:02:04.993Z,55.38
2022-11-12T07:05:09.579Z,53.40
2022-11-12T07:08:13.962Z,56.30
2022-11-12T07:11:19.475Z,55.70
2022-11-12T07:14:23.888Z,57.35
2022-11-12T07:17:28.236Z,59.63
2022-11-12T07:20:32.788Z,58.88
2022-11-12T07:23:37.861Z,60.28
2022-11-12T07:26:47.248Z,59.67
2022-11-12T07:29:52.303Z,59.17
2022-11-12T07:32:58.098Z,46.47
2022-11-12T07:36:08.353Z,66.85
2022-11-12T07:39:13.382Z,61.80
2022-11-12T07:42:17.557Z,65.32
2022-11-12T07:45:22.111Z,61.53
2022-11-12T07:48:27.578Z,63.75
2022-11-12T07:54:36.862Z,59.90
2022-11-12T07:57:41.159Z,63.17
2022-11-12T08:00:45.434Z,58.85
2022-11-12T08:03:50.618Z,59.88
2022-11-12T08:06:54.849Z,63.80
2022-11-12T08:10:01.586Z,60.53
2022-11-12T08:13:06.117Z,58.10
2022-11-12T08:16:10.490Z,55.60
2022-11-12T08:19:14.478Z,58.65
2022-11-12T08:22:18.819Z,52.03
2022-11-12T08:25:23.427Z,53.85
2022-11-12T08:28:35.715Z,53.30
2022-11-12T08:31:40.188Z,48.13
2022-11-12T08:34:44.404Z,45.03
2022-11-12T08:37:48.833Z,42.55
2022-11-12T08:40:53.114Z,38.03
2022-11-12T08:43:58.220Z,35.30
2022-11-12T08:47:02.957Z,33.72
2022-11-12T08:50:07.742Z,31.77
2022-11-12T08:53:15.999Z,28.55
2022-11-12T08:56:20.294Z,28.63
2022-11-12T08:59:24.634Z,28.45
2022-11-12T09:02:31.650Z,26.63
2022-11-12T09:05:35.972Z,27.67
2022-11-12T09:08:42.966Z,27.13
2022-11-12T09:11:52.539Z,25.85
2022-11-12T09:15:09.646Z,25.33
2022-11-12T09:18:21.099Z,21.35
2022-11-12T09:21:25.169Z,20.80
2022-11-12T09:24:29.613Z,19.50
2022-11-12T09:27:34.011Z,19.92
2022-11-12T09:30:43.186Z,19.13
2022-11-12T09:33:50.038Z,18.30
2022-11-12T09:36:55.682Z,19.10
2022-11-12T09:39:59.743Z,17.67
2022-11-12T09:43:27.155Z,18.00
2022-11-12T09:46:55.201Z,16.60
2022-11-12T09:50:29.493Z,16.92
2022-11-12T09:53:44.533Z,16.10
2022-11-12T09:56:49.830Z,16.23
2022-11-12T09:59:54.118Z,14.90
2022-11-12T10:03:13.943Z,14.73
2022-11-12T10:06:31.574Z,14.52
2022-11-12T10:10:11.444Z,13.75
2022-11-12T10:13:38.166Z,14.30
2022-11-12T10:16:51.154Z,12.70
2022-11-12T10:20:16.907Z,12.40
2022-11-12T10:23:26.650Z,11.80
2022-11-12T10:26:32.554Z,11.35
2022-11-12T10:29:51.435Z,12.30
2022-11-12T10:32:55.715Z,13.00
2022-11-12T10:36:22.122Z,12.68
2022-11-12T10:39:38.453Z,11.55
2022-11-12T10:43:03.689Z,13.05
2022-11-12T10:46:20.202Z,12.35
2022-11-12T10:49:25.116Z,11.93
2022-11-12T10:52:35.537Z,11.65
2022-11-12T10:55:58.767Z,12.05
2022-11-12T10:59:10.939Z,12.38
2022-11-12T11:02:18.930Z,10.88
2022-11-12T11:05:38.464Z,10.52
2022-11-12T11:08:51.718Z,10.55
2022-11-12T11:11:55.907Z,8.32
2022-11-12T11:15:22.233Z,8.77
2022-11-12T11:21:50.416Z,8.63
2022-11-12T11:25:23.138Z,6.78
2022-11-12T11:28:47.181Z,7.30
2022-11-12T11:32:06.038Z,6.68
2022-11-12T11:35:15.971Z,6.28
2022-11-12T11:38:39.822Z,6.55
2022-11-12T11:41:56.893Z,6.70
2022-11-12T11:45:28.968Z,6.10
2022-11-12T11:48:58.457Z,6.43
2022-11-12T11:52:12.231Z,5.93
2022-11-12T11:55:34.500Z,6.40
2022-11-12T11:59:02.750Z,5.43
2022-11-12T12:02:54.455Z,5.55
2022-11-12T12:06:13.743Z,5.10
2022-11-12T12:09:44.111Z,4.65
2022-11-12T12:13:15.702Z,5.40
2022-11-12T12:16:33.821Z,4.95
2022-11-12T12:19:53.567Z,5.20
2022-11-12T12:23:03.252Z,4.60
2022-11-12T12:26:18.157Z,4.72
2022-11-12T12:32:52.978Z,5.18
2022-11-12T12:39:27.061Z,3.88
2022-11-12T12:42:42.776Z,4.57
2022-11-12T12:45:48.531Z,4.40
2022-11-12T12:48:55.251Z,3.85
2022-11-12T12:51:59.853Z,3.13
2022-11-12T12:55:35.062Z,3.55
2022-11-12T12:58:50.539Z,3.75
2022-11-12T13:01:58.926Z,3.42
2022-11-12T13:05:03.794Z,3.33
2022-11-12T13:08:14.306Z,3.03
2022-11-12T13:12:05.336Z,3.17
2022-11-12T13:15:15.447Z,3.80
2022-11-12T13:18:38.137Z,3.13
2022-11-12T13:21:47.413Z,3.53
2022-11-12T13:25:10.640Z,3.15
2022-11-12T13:28:15.189Z,3.10
2022-11-12T13:31:28.524Z,2.90
2022-11-12T13:34:33.756Z,3.15
2022-11-12T13:37:48.146Z,3.75
2022-11-12T13:41:05.549Z,3.35
2022-11-12T13:44:15.887Z,3.58
2022-11-12T13:47:24.694Z,3.60
2022-11-12T13:50:29.244Z,3.28
2022-11-12T13:53:33.797Z,3.55
2022-11-12T13:56:39.069Z,3.95
2022-11-12T13:59:43.485Z,3.85
2022-11-12T14:03:04.621Z,4.18
2022-11-12T14:06:28.502Z,4.07
2022-11-12T14:09:56.192Z,4.72
2022-11-12T14:13:22.578Z,4.50
2022-11-12T14:16:44.362Z,4.50
2022-11-12T14:20:03.628Z,4.35
2022-11-12T14:23:24.426Z,4.28
2022-11-12T14:26:42.898Z,5.03
2022-11-12T14:29:48.792Z,4.82
2022-11-12T14:32:59.276Z,5.00
2022-11-12T14:36:15.579Z,4.70
2022-11-12T14:39:22.352Z,4.78
2022-11-12T14:42:26.634Z,4.80
2022-11-12T14:45:35.142Z,4.90
2022-11-12T14:49:28.014Z,5.07
2022-11-12T14:52:37.412Z,5.30
2022-11-12T14:55:47.399Z,4.78
2022-11-12T14:58:53.766Z,5.72
2022-11-12T15:02:31.305Z,5.10
2022-11-12T15:06:12.956Z,5.68
2022-11-12T15:09:21.803Z,6.35
2022-11-12T15:12:32.861Z,6.13
2022-11-12T15:15:40.856Z,6.13
2022-11-12T15:18:56.519Z,6.20
2022-11-12T15:22:03.383Z,7.50
2022-11-12T15:25:18.268Z,7.63
2022-11-12T15:28:27.423Z,7.18
2022-11-12T15:31:31.438Z,7.45
2022-11-12T15:34:42.131Z,7.47
2022-11-12T15:37:46.978Z,8.48
2022-11-12T15:41:18.744Z,8.65
2022-11-12T15:44:24.222Z,9.35
2022-11-12T15:47:29.233Z,9.63
2022-11-12T15:50:33.369Z,10.00
2022-11-12T15:53:37.829Z,10.73
2022-11-12T15:56:43.060Z,10.83
2022-11-12T16:00:06.295Z,12.40
2022-11-12T16:03:16.155Z,12.45
2022-11-12T16:06:20.568Z,13.55
2022-11-12T16:09:24.548Z,13.13
2022-11-12T16:12:29.659Z,13.57
2022-11-12T16:15:33.876Z,13.33
2022-11-12T16:18:38.138Z,15.40
2022-11-12T16:21:42.770Z,14.63
2022-11-12T16:24:49.938Z,14.60
2022-11-12T16:27:55.992Z,15.32
2022-11-12T16:31:00.552Z,16.75
2022-11-12T16:34:04.589Z,17.42
2022-11-12T16:37:13.302Z,17.90
2022-11-12T16:40:23.362Z,17.80
2022-11-12T16:43:28.228Z,15.80
2022-11-12T16:46:40.231Z,18.23
2022-11-12T16:49:47.583Z,16.90
2022-11-12T16:52:55.729Z,18.25
2022-11-12T16:56:02.745Z,18.55
2022-11-12T16:59:07.301Z,18.98
2022-11-12T17:02:15.457Z,20.27
2022-11-12T17:05:25.596Z,20.15
2022-11-12T17:08:33.889Z,20.40
2022-11-12T17:11:38.894Z,21.90
2022-11-12T17:14:45.994Z,22.83
2022-11-12T17:17:54.010Z,22.88
2022-11-12T17:21:14.254Z,21.88
2022-11-12T17:24:21.644Z,24.33
2022-11-12T17:27:25.788Z,26.42
2022-11-12T17:30:30.276Z,25.73
2022-11-12T17:33:38.351Z,26.38
2022-11-12T17:36:43.913Z,25.20
2022-11-12T17:39:51.269Z,25.67
2022-11-12T17:42:55.603Z,26.35
2022-11-12T17:46:04.802Z,25.75
2022-11-12T17:49:09.617Z,26.55
2022-11-12T17:52:14.129Z,26.65
2022-11-12T17:55:18.408Z,29.20
2022-11-12T17:58:22.761Z,33.25
2022-11-12T18:01:29.260Z,32.10
2022-11-12T18:04:33.882Z,29.67
2022-11-12T18:07:38.247Z,29.95
2022-11-12T18:10:45.039Z,29.50
2022-11-12T18:13:49.628Z,30.27
2022-11-12T18:16:53.742Z,31.23
2022-11-12T18:19:58.093Z,31.75
2022-11-12T18:23:02.450Z,32.35
2022-11-12T18:26:06.973Z,32.20
2022-11-12T18:29:12.509Z,31.15
2022-11-12T18:32:20.847Z,31.52
2022-11-12T18:35:29.640Z,30.50
2022-11-12T18:38:35.029Z,30.83
2022-11-12T18:41:39.439Z,30.42
2022-11-12T18:44:43.510Z,31.10
2022-11-12T18:47:48.121Z,30.25
2022-11-12T18:50:52.366Z,32.20
2022-11-12T18:53:56.970Z,34.78
2022-11-12T18:57:01.569Z,36.75
2022-11-12T19:00:06.083Z,36.95
2022-11-12T19:03:10.499Z,36.50
2022-11-12T19:06:15.626Z,35.77
2022-11-12T19:09:20.043Z,36.85
2022-11-12T19:12:24.281Z,36.40
2022-11-12T19:15:28.489Z,38.88
2022-11-12T19:18:35.773Z,39.30
2022-11-12T19:21:39.954Z,39.53
2022-11-12T19:24:44.466Z,39.90
2022-11-12T19:27:49.169Z,42.55
2022-11-12T19:30:53.414Z,41.17
2022-11-12T19:33:57.855Z,40.42
2022-11-12T19:40:26.451Z,40.92
2022-11-12T19:43:31.381Z,39.83
2022-11-12T19:46:36.398Z,40.97
2022-11-12T19:49:40.723Z,43.63
2022-11-12T19:52:45.360Z,44.13
2022-11-12T19:55:49.621Z,44.22
2022-11-12T19:58:55.000Z,42.90
2022-11-12T20:01:59.399Z,46.42
2022-11-12T20:05:04.708Z,46.47
2022-11-12T20:08:09.269Z,47.83
2022-11-12T20:11:18.019Z,49.15
2022-11-12T20:14:22.415Z,48.65
2022-11-12T20:17:29.405Z,52.28
2022-11-12T20:20:34.030Z,51.65
2022-11-12T20:23:40.823Z,49.53
2022-11-12T20:26:45.354Z,51.92
2022-11-12T20:29:49.847Z,51.78
2022-11-12T20:32:53.906Z,51.53
2022-11-12T20:36:16.283Z,52.78
2022-11-12T20:39:20.640Z,50.20
2022-11-12T20:42:24.911Z,47.97
2022-11-12T20:45:29.329Z,50.10
2022-11-12T20:48:33.602Z,53.13
2022-11-12T20:51:37.890Z,50.00
2022-11-12T20:54:42.272Z,53.00
2022-11-12T20:57:46.732Z,52.47
2022-11-12T21:00:51.092Z,53.22
2022-11-12T21:03:56.750Z,52.08
2022-11-12T21:07:05.285Z,52.33
2022-11-12T21:10:10.171Z,56.85
2022-11-12T21:13:15.876Z,61.85
2022-11-12T21:16:20.318Z,58.80
2022-11-12T21:19:26.111Z,57.60
2022-11-12T21:22:32.102Z,61.83
2022-11-12T21:25:40.173Z,62.55
2022-11-12T21:28:50.722Z,66.30
2022-11-12T21:31:54.672Z,62.35
2022-11-12T21:34:59.270Z,61.33
2022-11-12T21:38:03.354Z,61.03
2022-11-12T21:41:19.815Z,61.85
2022-11-12T21:44:24.362Z,59.65
2022-11-12T21:47:28.943Z,62.60
2022-11-12T21:50:33.661Z,62.95
2022-11-12T21:53:38.802Z,60.08
2022-11-12T21:56:45.057Z,63.73
2022-11-12T21:59:49.436Z,61.67
2022-11-12T22:02:58.046Z,60.65
2022-11-12T22:06:02.771Z,61.65
2022-11-12T22:09:07.137Z,64.90
2022-11-12T22:12:11.972Z,66.18
2022-11-12T22:15:20.053Z,68.05
2022-11-12T22:18:28.552Z,68.38
2022-11-12T22:21:39.518Z,66.13
2022-11-12T22:24:44.121Z,67.63
2022-11-12T22:27:48.527Z,65.68
2022-11-12T22:30:53.002Z,67.22
2022-11-12T22:33:59.722Z,68.68
2022-11-12T22:37:03.764Z,66.53
2022-11-12T22:40:13.175Z,65.97
2022-11-12T22:43:17.661Z,62.88
2022-11-12T22:46:27.199Z,64.28
2022-11-12T22:49:33.346Z,62.00
2022-11-12T22:52:37.891Z,61.40
2022-11-12T22:55:42.298Z,61.20
2022-11-12T22:58:47.567Z,60.22
2022-11-12T23:01:52.109Z,62.50
2022-11-12T23:04:56.011Z,64.90
2022-11-12T23:08:04.285Z,61.77
2022-11-12T23:11:10.921Z,56.17
2022-11-12T23:14:15.203Z,58.65
2022-11-12T23:17:19.622Z,59.28
2022-11-12T23:20:24.290Z,56.88
2022-11-12T23:23:28.762Z,54.25
2022-11-12T23:26:33.402Z,53.10
2022-11-12T23:29:37.713Z,53.58
2022-11-12T23:32:42.134Z,53.92
2022-11-12T23:35:46.939Z,50.03
2022-11-12T23:38:51.908Z,47.00
2022-11-12T23:41:56.203Z,47.70
2022-11-12T23:45:00.545Z,48.53
2022-11-12T23:48:05.333Z,46.08
2022-11-12T23:51:18.969Z,47.23
2022-11-12T23:54:22.971Z,46.90
2022-11-12T23:57:27.173Z,47.45
